Aviation Digital Data Service (ADDS)

Output produced by METARs form (1344 UTC 01 September 2014)
found at http://aviationweather.gov/adds/metars/
 
KJFK 011336Z 0114/0218 21006KT P6SM SCT015 BKN060 
     FM011600 18010KT P6SM SCT025 BKN040 
     TEMPO 0116/0120 SHRA 
     FM020100 21007KT 6SM BR SCT025 SCT040 
     FM020700 VRB03KT 6SM BR SCT020 SCT040 
     FM021500 23007KT P6SM SCT050